sensor_id;sensor_type;location;lat;lon;timestamp;temperature;humidity
69503;SHT31;56704;54.242;12.442;2023-10-19T00:02:08;7.28;83.19
69503;SHT31;56704;54.242;12.442;2023-10-19T00:04:37;7.31;83.09
69503;SHT31;56704;54.242;12.442;2023-10-19T00:07:05;7.30;83.09
69503;SHT31;56704;54.242;12.442;2023-10-19T00:09:34;7.31;83.07
69503;SHT31;56704;54.242;12.442;2023-10-19T00:12:04;7.34;83.05
69503;SHT31;56704;54.242;12.442;2023-10-19T00:14:34;7.31;83.00
69503;SHT31;56704;54.242;12.442;2023-10-19T00:17:00;7.34;82.91
69503;SHT31;56704;54.242;12.442;2023-10-19T00:19:33;7.40;82.93
69503;SHT31;56704;54.242;12.442;2023-10-19T00:22:07;7.40;82.85
69503;SHT31;56704;54.242;12.442;2023-10-19T00:24:46;7.38;82.83
69503;SHT31;56704;54.242;12.442;2023-10-19T00:27:12;7.38;82.85
69503;SHT31;56704;54.242;12.442;2023-10-19T00:29:42;7.38;82.97
69503;SHT31;56704;54.242;12.442;2023-10-19T00:32:14;7.42;82.95
69503;SHT31;56704;54.242;12.442;2023-10-19T00:34:44;7.34;83.02
69503;SHT31;56704;54.242;12.442;2023-10-19T00:37:18;7.40;82.92
69503;SHT31;56704;54.242;12.442;2023-10-19T00:39:51;7.43;82.80
69503;SHT31;56704;54.242;12.442;2023-10-19T00:42:20;7.44;82.92
69503;SHT31;56704;54.242;12.442;2023-10-19T00:44:51;7.46;82.78
69503;SHT31;56704;54.242;12.442;2023-10-19T00:47:26;7.46;82.83
69503;SHT31;56704;54.242;12.442;2023-10-19T00:50:00;7.43;82.80
69503;SHT31;56704;54.242;12.442;2023-10-19T00:52:31;7.46;82.83
69503;SHT31;56704;54.242;12.442;2023-10-19T00:55:07;7.43;82.87
69503;SHT31;56704;54.242;12.442;2023-10-19T00:57:35;7.43;82.95
69503;SHT31;56704;54.242;12.442;2023-10-19T01:00:03;7.38;83.08
69503;SHT31;56704;54.242;12.442;2023-10-19T01:02:37;7.44;83.14
69503;SHT31;56704;54.242;12.442;2023-10-19T01:05:10;7.44;83.37
69503;SHT31;56704;54.242;12.442;2023-10-19T01:07:38;7.47;83.45
69503;SHT31;56704;54.242;12.442;2023-10-19T01:10:07;7.47;83.52
69503;SHT31;56704;54.242;12.442;2023-10-19T01:12:34;7.48;83.67
69503;SHT31;56704;54.242;12.442;2023-10-19T01:15:06;7.51;83.72
69503;SHT31;56704;54.242;12.442;2023-10-19T01:17:36;7.50;83.85
69503;SHT31;56704;54.242;12.442;2023-10-19T01:20:07;7.50;83.89
69503;SHT31;56704;54.242;12.442;2023-10-19T01:22:48;7.51;83.92
69503;SHT31;56704;54.242;12.442;2023-10-19T01:25:16;7.54;83.93
69503;SHT31;56704;54.242;12.442;2023-10-19T01:27:43;7.56;83.92
69503;SHT31;56704;54.242;12.442;2023-10-19T01:30:11;7.57;83.97
69503;SHT31;56704;54.242;12.442;2023-10-19T01:32:39;7.61;83.83
69503;SHT31;56704;54.242;12.442;2023-10-19T01:35:07;7.63;83.82
69503;SHT31;56704;54.242;12.442;2023-10-19T01:37:34;7.63;83.76
69503;SHT31;56704;54.242;12.442;2023-10-19T01:40:06;7.67;83.60
69503;SHT31;56704;54.242;12.442;2023-10-19T01:42:33;7.70;83.59
69503;SHT31;56704;54.242;12.442;2023-10-19T01:44:59;7.71;83.51
69503;SHT31;56704;54.242;12.442;2023-10-19T01:47:26;7.73;83.54
69503;SHT31;56704;54.242;12.442;2023-10-19T01:49:53;7.73;83.59
69503;SHT31;56704;54.242;12.442;2023-10-19T01:52:20;7.73;83.69
69503;SHT31;56704;54.242;12.442;2023-10-19T01:54:50;7.74;83.58
69503;SHT31;56704;54.242;12.442;2023-10-19T01:57:25;7.77;83.56
69503;SHT31;56704;54.242;12.442;2023-10-19T01:59:51;7.78;83.41
69503;SHT31;56704;54.242;12.442;2023-10-19T02:02:18;7.79;83.43
69503;SHT31;56704;54.242;12.442;2023-10-19T02:04:47;7.81;83.45
69503;SHT31;56704;54.242;12.442;2023-10-19T02:07:16;7.82;83.39
69503;SHT31;56704;54.242;12.442;2023-10-19T02:09:43;7.84;83.40
69503;SHT31;56704;54.242;12.442;2023-10-19T02:12:09;7.85;83.32
69503;SHT31;56704;54.242;12.442;2023-10-19T02:14:37;7.88;83.39
69503;SHT31;56704;54.242;12.442;2023-10-19T02:17:04;7.92;83.32
69503;SHT31;56704;54.242;12.442;2023-10-19T02:19:30;7.92;83.30
69503;SHT31;56704;54.242;12.442;2023-10-19T02:22:00;7.94;83.32
69503;SHT31;56704;54.242;12.442;2023-10-19T02:24:29;7.98;83.20
69503;SHT31;56704;54.242;12.442;2023-10-19T02:26:57;8.01;83.06
69503;SHT31;56704;54.242;12.442;2023-10-19T02:29:23;8.01;83.01
69503;SHT31;56704;54.242;12.442;2023-10-19T02:31:52;8.08;82.80
69503;SHT31;56704;54.242;12.442;2023-10-19T02:34:19;8.06;82.64
69503;SHT31;56704;54.242;12.442;2023-10-19T02:36:46;8.09;82.48
69503;SHT31;56704;54.242;12.442;2023-10-19T02:39:13;8.12;82.53
69503;SHT31;56704;54.242;12.442;2023-10-19T02:41:41;8.15;82.48
69503;SHT31;56704;54.242;12.442;2023-10-19T02:44:08;8.13;82.49
69503;SHT31;56704;54.242;12.442;2023-10-19T02:46:39;8.12;82.58
69503;SHT31;56704;54.242;12.442;2023-10-19T02:49:09;8.13;82.53
69503;SHT31;56704;54.242;12.442;2023-10-19T02:51:37;8.16;82.31
69503;SHT31;56704;54.242;12.442;2023-10-19T02:54:04;8.15;82.35
69503;SHT31;56704;54.242;12.442;2023-10-19T02:56:33;8.16;82.29
69503;SHT31;56704;54.242;12.442;2023-10-19T02:59:01;8.15;82.30
69503;SHT31;56704;54.242;12.442;2023-10-19T03:01:29;8.18;82.28
69503;SHT31;56704;54.242;12.442;2023-10-19T03:03:57;8.18;82.29
69503;SHT31;56704;54.242;12.442;2023-10-19T03:06:27;8.19;82.30
69503;SHT31;56704;54.242;12.442;2023-10-19T03:08:57;8.19;82.31
69503;SHT31;56704;54.242;12.442;2023-10-19T03:11:23;8.21;82.23
69503;SHT31;56704;54.242;12.442;2023-10-19T03:13:49;8.22;82.18
69503;SHT31;56704;54.242;12.442;2023-10-19T03:16:15;8.24;82.20
69503;SHT31;56704;54.242;12.442;2023-10-19T03:18:42;8.25;82.20
69503;SHT31;56704;54.242;12.442;2023-10-19T03:21:08;8.28;82.24
69503;SHT31;56704;54.242;12.442;2023-10-19T03:23:37;8.29;82.26
69503;SHT31;56704;54.242;12.442;2023-10-19T03:26:03;8.25;82.44
69503;SHT31;56704;54.242;12.442;2023-10-19T03:28:48;8.26;82.68
69503;SHT31;56704;54.242;12.442;2023-10-19T03:31:16;8.26;82.76
69503;SHT31;56704;54.242;12.442;2023-10-19T03:33:44;8.29;82.90
69503;SHT31;56704;54.242;12.442;2023-10-19T03:36:13;8.28;82.92
69503;SHT31;56704;54.242;12.442;2023-10-19T03:38:41;8.32;83.01
69503;SHT31;56704;54.242;12.442;2023-10-19T03:41:09;8.30;83.14
69503;SHT31;56704;54.242;12.442;2023-10-19T03:43:36;8.33;83.36
69503;SHT31;56704;54.242;12.442;2023-10-19T03:46:05;8.32;83.44
69503;SHT31;56704;54.242;12.442;2023-10-19T03:48:40;8.36;83.66
69503;SHT31;56704;54.242;12.442;2023-10-19T03:51:07;8.39;83.74
69503;SHT31;56704;54.242;12.442;2023-10-19T03:53:37;8.39;84.01
69503;SHT31;56704;54.242;12.442;2023-10-19T03:56:10;8.38;84.08
69503;SHT31;56704;54.242;12.442;2023-10-19T03:58:37;8.40;84.21
69503;SHT31;56704;54.242;12.442;2023-10-19T04:01:05;8.42;84.43
69503;SHT31;56704;54.242;12.442;2023-10-19T04:03:32;8.42;84.44
69503;SHT31;56704;54.242;12.442;2023-10-19T04:06:02;8.42;84.49
69503;SHT31;56704;54.242;12.442;2023-10-19T04:08:30;8.45;84.36
69503;SHT31;56704;54.242;12.442;2023-10-19T04:11:00;8.48;84.21
69503;SHT31;56704;54.242;12.442;2023-10-19T04:13:49;8.52;84.16
69503;SHT31;56704;54.242;12.442;2023-10-19T04:16:19;8.52;84.14
69503;SHT31;56704;54.242;12.442;2023-10-19T04:18:46;8.49;84.20
69503;SHT31;56704;54.242;12.442;2023-10-19T04:21:14;8.49;84.18
69503;SHT31;56704;54.242;12.442;2023-10-19T04:23:40;8.50;84.16
69503;SHT31;56704;54.242;12.442;2023-10-19T04:26:08;8.52;84.13
69503;SHT31;56704;54.242;12.442;2023-10-19T04:28:38;8.53;84.04
69503;SHT31;56704;54.242;12.442;2023-10-19T04:31:11;8.50;84.06
69503;SHT31;56704;54.242;12.442;2023-10-19T04:33:41;8.52;84.04
69503;SHT31;56704;54.242;12.442;2023-10-19T04:36:13;8.53;83.95
69503;SHT31;56704;54.242;12.442;2023-10-19T04:38:41;8.53;83.92
69503;SHT31;56704;54.242;12.442;2023-10-19T04:41:10;8.53;83.99
69503;SHT31;56704;54.242;12.442;2023-10-19T04:43:38;8.50;84.03
69503;SHT31;56704;54.242;12.442;2023-10-19T04:46:08;8.45;84.00
69503;SHT31;56704;54.242;12.442;2023-10-19T04:48:38;8.50;83.98
69503;SHT31;56704;54.242;12.442;2023-10-19T04:51:07;8.49;83.91
69503;SHT31;56704;54.242;12.442;2023-10-19T04:53:35;8.49;83.90
69503;SHT31;56704;54.242;12.442;2023-10-19T04:56:03;8.48;83.93
69503;SHT31;56704;54.242;12.442;2023-10-19T04:58:30;8.48;83.81
69503;SHT31;56704;54.242;12.442;2023-10-19T05:00:56;8.50;83.88
69503;SHT31;56704;54.242;12.442;2023-10-19T05:03:24;8.46;83.90
69503;SHT31;56704;54.242;12.442;2023-10-19T05:05:52;8.48;83.86
69503;SHT31;56704;54.242;12.442;2023-10-19T05:08:20;8.49;83.87
69503;SHT31;56704;54.242;12.442;2023-10-19T05:10:50;8.48;83.77
69503;SHT31;56704;54.242;12.442;2023-10-19T05:13:17;8.49;83.75
69503;SHT31;56704;54.242;12.442;2023-10-19T05:15:45;8.49;83.74
69503;SHT31;56704;54.242;12.442;2023-10-19T05:18:12;8.50;83.76
69503;SHT31;56704;54.242;12.442;2023-10-19T05:20:39;8.50;83.70
69503;SHT31;56704;54.242;12.442;2023-10-19T05:23:08;8.45;83.77
69503;SHT31;56704;54.242;12.442;2023-10-19T05:25:34;8.48;83.76
69503;SHT31;56704;54.242;12.442;2023-10-19T05:28:04;8.49;83.75
69503;SHT31;56704;54.242;12.442;2023-10-19T05:30:30;8.50;83.73
69503;SHT31;56704;54.242;12.442;2023-10-19T05:32:58;8.56;83.59
69503;SHT31;56704;54.242;12.442;2023-10-19T05:35:25;8.53;83.57
69503;SHT31;56704;54.242;12.442;2023-10-19T05:37:52;8.53;83.67
69503;SHT31;56704;54.242;12.442;2023-10-19T05:40:22;8.53;83.57
69503;SHT31;56704;54.242;12.442;2023-10-19T05:42:54;8.53;83.55
69503;SHT31;56704;54.242;12.442;2023-10-19T05:45:21;8.52;83.43
69503;SHT31;56704;54.242;12.442;2023-10-19T05:47:48;8.54;83.38
69503;SHT31;56704;54.242;12.442;2023-10-19T05:50:15;8.56;83.45
69503;SHT31;56704;54.242;12.442;2023-10-19T05:52:41;8.56;83.35
69503;SHT31;56704;54.242;12.442;2023-10-19T05:55:08;8.59;83.27
69503;SHT31;56704;54.242;12.442;2023-10-19T05:57:38;8.57;83.29
69503;SHT31;56704;54.242;12.442;2023-10-19T06:00:08;8.57;83.33
69503;SHT31;56704;54.242;12.442;2023-10-19T06:02:39;8.54;83.29
69503;SHT31;56704;54.242;12.442;2023-10-19T06:05:06;8.59;83.22
69503;SHT31;56704;54.242;12.442;2023-10-19T06:07:32;8.54;83.16
69503;SHT31;56704;54.242;12.442;2023-10-19T06:09:59;8.59;83.05
69503;SHT31;56704;54.242;12.442;2023-10-19T06:12:30;8.60;82.80
69503;SHT31;56704;54.242;12.442;2023-10-19T06:14:58;8.57;82.79
69503;SHT31;56704;54.242;12.442;2023-10-19T06:17:26;8.59;82.58
69503;SHT31;56704;54.242;12.442;2023-10-19T06:19:54;8.61;82.58
69503;SHT31;56704;54.242;12.442;2023-10-19T06:22:21;8.64;82.53
69503;SHT31;56704;54.242;12.442;2023-10-19T06:24:47;8.60;82.38
69503;SHT31;56704;54.242;12.442;2023-10-19T06:27:14;8.60;82.28
69503;SHT31;56704;54.242;12.442;2023-10-19T06:29:40;8.66;82.18
69503;SHT31;56704;54.242;12.442;2023-10-19T06:32:08;8.59;82.10
69503;SHT31;56704;54.242;12.442;2023-10-19T06:34:38;8.66;81.86
69503;SHT31;56704;54.242;12.442;2023-10-19T06:37:05;8.70;81.88
69503;SHT31;56704;54.242;12.442;2023-10-19T06:39:34;8.70;81.68
69503;SHT31;56704;54.242;12.442;2023-10-19T06:42:03;8.79;81.38
69503;SHT31;56704;54.242;12.442;2023-10-19T06:44:30;8.77;81.09
69503;SHT31;56704;54.242;12.442;2023-10-19T06:46:57;8.77;81.11
69503;SHT31;56704;54.242;12.442;2023-10-19T06:49:25;8.80;80.95
69503;SHT31;56704;54.242;12.442;2023-10-19T06:51:51;8.84;80.90
69503;SHT31;56704;54.242;12.442;2023-10-19T06:54:18;8.81;80.63
69503;SHT31;56704;54.242;12.442;2023-10-19T06:56:45;8.83;80.65
69503;SHT31;56704;54.242;12.442;2023-10-19T06:59:11;8.84;80.80
69503;SHT31;56704;54.242;12.442;2023-10-19T07:01:38;8.84;80.74
69503;SHT31;56704;54.242;12.442;2023-10-19T07:04:05;8.84;80.77
69503;SHT31;56704;54.242;12.442;2023-10-19T07:06:33;8.85;80.69
69503;SHT31;56704;54.242;12.442;2023-10-19T07:09:00;8.87;80.79
69503;SHT31;56704;54.242;12.442;2023-10-19T07:11:29;8.87;80.80
69503;SHT31;56704;54.242;12.442;2023-10-19T07:13:55;8.88;80.79
69503;SHT31;56704;54.242;12.442;2023-10-19T07:16:22;8.92;80.75
69503;SHT31;56704;54.242;12.442;2023-10-19T07:18:49;8.92;80.56
69503;SHT31;56704;54.242;12.442;2023-10-19T07:21:16;8.94;80.54
69503;SHT31;56704;54.242;12.442;2023-10-19T07:23:44;9.00;80.58
69503;SHT31;56704;54.242;12.442;2023-10-19T07:26:14;8.97;80.53
69503;SHT31;56704;54.242;12.442;2023-10-19T07:28:41;8.99;80.42
69503;SHT31;56704;54.242;12.442;2023-10-19T07:31:07;9.00;80.34
69503;SHT31;56704;54.242;12.442;2023-10-19T07:33:38;9.01;80.31
69503;SHT31;56704;54.242;12.442;2023-10-19T07:36:12;9.04;80.37
69503;SHT31;56704;54.242;12.442;2023-10-19T07:38:39;9.03;80.09
69503;SHT31;56704;54.242;12.442;2023-10-19T07:41:08;9.05;80.03
69503;SHT31;56704;54.242;12.442;2023-10-19T07:43:35;9.05;80.05
69503;SHT31;56704;54.242;12.442;2023-10-19T07:46:02;9.07;79.90
69503;SHT31;56704;54.242;12.442;2023-10-19T07:48:29;9.08;79.83
69503;SHT31;56704;54.242;12.442;2023-10-19T07:50:55;9.10;80.00
69503;SHT31;56704;54.242;12.442;2023-10-19T07:53:22;9.08;79.79
69503;SHT31;56704;54.242;12.442;2023-10-19T07:55:50;9.10;79.83
69503;SHT31;56704;54.242;12.442;2023-10-19T07:58:19;9.11;79.84
69503;SHT31;56704;54.242;12.442;2023-10-19T08:00:45;9.14;79.83
69503;SHT31;56704;54.242;12.442;2023-10-19T08:03:12;9.15;79.70
69503;SHT31;56704;54.242;12.442;2023-10-19T08:05:41;9.15;79.57
69503;SHT31;56704;54.242;12.442;2023-10-19T08:08:08;9.20;79.40
69503;SHT31;56704;54.242;12.442;2023-10-19T08:10:34;9.22;79.41
69503;SHT31;56704;54.242;12.442;2023-10-19T08:13:02;9.27;79.38
69503;SHT31;56704;54.242;12.442;2023-10-19T08:15:30;9.28;79.08
69503;SHT31;56704;54.242;12.442;2023-10-19T08:17:57;9.32;79.02
69503;SHT31;56704;54.242;12.442;2023-10-19T08:20:24;9.35;78.88
69503;SHT31;56704;54.242;12.442;2023-10-19T08:22:57;9.32;78.52
69503;SHT31;56704;54.242;12.442;2023-10-19T08:25:24;9.38;78.52
69503;SHT31;56704;54.242;12.442;2023-10-19T08:27:52;9.35;77.88
69503;SHT31;56704;54.242;12.442;2023-10-19T08:30:22;9.39;77.60
69503;SHT31;56704;54.242;12.442;2023-10-19T08:32:51;9.39;77.57
69503;SHT31;56704;54.242;12.442;2023-10-19T08:35:19;9.46;77.67
69503;SHT31;56704;54.242;12.442;2023-10-19T08:37:49;9.48;77.47
69503;SHT31;56704;54.242;12.442;2023-10-19T08:40:16;9.49;77.33
69503;SHT31;56704;54.242;12.442;2023-10-19T08:42:44;9.48;77.16
69503;SHT31;56704;54.242;12.442;2023-10-19T08:45:11;9.49;77.27
69503;SHT31;56704;54.242;12.442;2023-10-19T08:47:41;9.52;77.25
69503;SHT31;56704;54.242;12.442;2023-10-19T08:50:12;9.53;77.04
69503;SHT31;56704;54.242;12.442;2023-10-19T08:52:39;9.58;77.08
69503;SHT31;56704;54.242;12.442;2023-10-19T08:55:07;9.55;77.03
69503;SHT31;56704;54.242;12.442;2023-10-19T08:57:35;9.56;76.51
69503;SHT31;56704;54.242;12.442;2023-10-19T09:00:05;9.61;76.68
69503;SHT31;56704;54.242;12.442;2023-10-19T09:02:32;9.62;76.71
69503;SHT31;56704;54.242;12.442;2023-10-19T09:04:58;9.68;76.71
69503;SHT31;56704;54.242;12.442;2023-10-19T09:07:26;9.65;76.89
69503;SHT31;56704;54.242;12.442;2023-10-19T09:09:56;9.69;76.26
69503;SHT31;56704;54.242;12.442;2023-10-19T09:12:22;9.68;76.03
69503;SHT31;56704;54.242;12.442;2023-10-19T09:14:49;9.69;76.19
69503;SHT31;56704;54.242;12.442;2023-10-19T09:17:15;9.73;76.39
69503;SHT31;56704;54.242;12.442;2023-10-19T09:19:44;9.69;75.83
69503;SHT31;56704;54.242;12.442;2023-10-19T09:22:12;9.69;75.94
69503;SHT31;56704;54.242;12.442;2023-10-19T09:24:45;9.72;75.94
69503;SHT31;56704;54.242;12.442;2023-10-19T09:27:12;9.71;76.21
69503;SHT31;56704;54.242;12.442;2023-10-19T09:29:39;9.72;76.29
69503;SHT31;56704;54.242;12.442;2023-10-19T09:32:07;9.71;76.10
69503;SHT31;56704;54.242;12.442;2023-10-19T09:34:35;9.69;75.89
69503;SHT31;56704;54.242;12.442;2023-10-19T09:37:03;9.69;75.64
69503;SHT31;56704;54.242;12.442;2023-10-19T09:39:30;9.76;75.82
69503;SHT31;56704;54.242;12.442;2023-10-19T09:42:02;9.75;75.62
69503;SHT31;56704;54.242;12.442;2023-10-19T09:44:37;9.79;75.55
69503;SHT31;56704;54.242;12.442;2023-10-19T09:47:10;9.81;75.33
69503;SHT31;56704;54.242;12.442;2023-10-19T09:49:38;9.83;75.57
69503;SHT31;56704;54.242;12.442;2023-10-19T09:52:06;9.86;75.64
69503;SHT31;56704;54.242;12.442;2023-10-19T09:54:41;9.96;75.70
69503;SHT31;56704;54.242;12.442;2023-10-19T09:57:18;9.97;75.58
69503;SHT31;56704;54.242;12.442;2023-10-19T09:59:51;9.99;75.54
69503;SHT31;56704;54.242;12.442;2023-10-19T10:02:20;9.99;75.69
69503;SHT31;56704;54.242;12.442;2023-10-19T10:04:47;9.99;76.06
69503;SHT31;56704;54.242;12.442;2023-10-19T10:07:14;9.92;76.26
69503;SHT31;56704;54.242;12.442;2023-10-19T10:09:42;9.94;76.77
69503;SHT31;56704;54.242;12.442;2023-10-19T10:12:21;9.92;76.86
69503;SHT31;56704;54.242;12.442;2023-10-19T10:14:56;9.89;76.97
69503;SHT31;56704;54.242;12.442;2023-10-19T10:17:24;9.90;77.09
69503;SHT31;56704;54.242;12.442;2023-10-19T10:19:53;9.93;77.35
69503;SHT31;56704;54.242;12.442;2023-10-19T10:22:22;9.96;77.44
69503;SHT31;56704;54.242;12.442;2023-10-19T10:24:54;9.97;77.34
69503;SHT31;56704;54.242;12.442;2023-10-19T10:27:23;10.03;77.07
69503;SHT31;56704;54.242;12.442;2023-10-19T10:29:54;10.00;77.00
69503;SHT31;56704;54.242;12.442;2023-10-19T10:32:42;10.04;76.70
69503;SHT31;56704;54.242;12.442;2023-10-19T10:35:09;10.13;76.66
69503;SHT31;56704;54.242;12.442;2023-10-19T10:37:36;10.14;76.58
69503;SHT31;56704;54.242;12.442;2023-10-19T10:40:04;10.17;76.62
69503;SHT31;56704;54.242;12.442;2023-10-19T10:42:33;10.20;76.59
69503;SHT31;56704;54.242;12.442;2023-10-19T10:45:01;10.17;76.40
69503;SHT31;56704;54.242;12.442;2023-10-19T10:47:30;10.16;76.21
69503;SHT31;56704;54.242;12.442;2023-10-19T10:50:00;10.18;76.10
69503;SHT31;56704;54.242;12.442;2023-10-19T10:52:28;10.24;76.34
69503;SHT31;56704;54.242;12.442;2023-10-19T10:54:55;10.29;76.13
69503;SHT31;56704;54.242;12.442;2023-10-19T10:57:22;10.38;76.09
69503;SHT31;56704;54.242;12.442;2023-10-19T11:00:02;10.50;76.14
69503;SHT31;56704;54.242;12.442;2023-10-19T11:02:30;10.50;75.60
69503;SHT31;56704;54.242;12.442;2023-10-19T11:04:57;10.53;75.73
69503;SHT31;56704;54.242;12.442;2023-10-19T11:07:25;10.65;75.57
69503;SHT31;56704;54.242;12.442;2023-10-19T11:09:52;10.68;75.10
69503;SHT31;56704;54.242;12.442;2023-10-19T11:12:20;10.74;75.30
69503;SHT31;56704;54.242;12.442;2023-10-19T11:14:53;10.78;75.25
69503;SHT31;56704;54.242;12.442;2023-10-19T11:17:21;10.74;74.48
69503;SHT31;56704;54.242;12.442;2023-10-19T11:19:54;10.81;74.60
69503;SHT31;56704;54.242;12.442;2023-10-19T11:22:22;10.92;74.65
69503;SHT31;56704;54.242;12.442;2023-10-19T11:24:50;10.98;74.11
69503;SHT31;56704;54.242;12.442;2023-10-19T11:27:22;11.09;73.79
69503;SHT31;56704;54.242;12.442;2023-10-19T11:29:55;11.18;73.04
69503;SHT31;56704;54.242;12.442;2023-10-19T11:32:24;11.28;73.16
69503;SHT31;56704;54.242;12.442;2023-10-19T11:34:51;11.35;72.91
69503;SHT31;56704;54.242;12.442;2023-10-19T11:37:18;11.43;72.88
69503;SHT31;56704;54.242;12.442;2023-10-19T11:39:45;11.52;72.08
69503;SHT31;56704;54.242;12.442;2023-10-19T11:42:12;11.59;72.09
69503;SHT31;56704;54.242;12.442;2023-10-19T11:44:39;11.55;71.83
69503;SHT31;56704;54.242;12.442;2023-10-19T11:47:05;11.56;71.93
69503;SHT31;56704;54.242;12.442;2023-10-19T11:49:33;11.56;72.28
69503;SHT31;56704;54.242;12.442;2023-10-19T11:52:00;11.47;72.26
69503;SHT31;56704;54.242;12.442;2023-10-19T11:54:27;11.55;72.52
69503;SHT31;56704;54.242;12.442;2023-10-19T11:56:54;11.56;72.25
69503;SHT31;56704;54.242;12.442;2023-10-19T11:59:21;11.53;72.09
69503;SHT31;56704;54.242;12.442;2023-10-19T12:01:48;11.52;72.15
69503;SHT31;56704;54.242;12.442;2023-10-19T12:04:15;11.50;71.99
69503;SHT31;56704;54.242;12.442;2023-10-19T12:06:43;11.42;72.04
69503;SHT31;56704;54.242;12.442;2023-10-19T12:09:11;11.39;72.35
69503;SHT31;56704;54.242;12.442;2023-10-19T12:11:41;11.33;72.32
69503;SHT31;56704;54.242;12.442;2023-10-19T12:14:07;11.30;72.44
69503;SHT31;56704;54.242;12.442;2023-10-19T12:16:37;11.28;72.62
69503;SHT31;56704;54.242;12.442;2023-10-19T12:19:04;11.25;72.14
69503;SHT31;56704;54.242;12.442;2023-10-19T12:21:33;11.11;72.62
69503;SHT31;56704;54.242;12.442;2023-10-19T12:24:05;11.06;72.48
69503;SHT31;56704;54.242;12.442;2023-10-19T12:26:33;10.96;72.95
69503;SHT31;56704;54.242;12.442;2023-10-19T12:28:59;10.96;73.20
69503;SHT31;56704;54.242;12.442;2023-10-19T12:31:26;10.92;73.17
69503;SHT31;56704;54.242;12.442;2023-10-19T12:33:52;10.89;73.26
69503;SHT31;56704;54.242;12.442;2023-10-19T12:36:19;10.88;73.85
69503;SHT31;56704;54.242;12.442;2023-10-19T12:38:56;10.85;73.69
69503;SHT31;56704;54.242;12.442;2023-10-19T12:41:25;10.79;73.87
69503;SHT31;56704;54.242;12.442;2023-10-19T12:43:52;10.71;74.19
69503;SHT31;56704;54.242;12.442;2023-10-19T12:46:22;10.67;74.26
69503;SHT31;56704;54.242;12.442;2023-10-19T12:48:50;10.64;74.48
69503;SHT31;56704;54.242;12.442;2023-10-19T12:51:17;10.65;74.63
69503;SHT31;56704;54.242;12.442;2023-10-19T12:53:48;10.65;74.75
69503;SHT31;56704;54.242;12.442;2023-10-19T12:56:16;10.65;75.07
69503;SHT31;56704;54.242;12.442;2023-10-19T12:58:44;10.65;75.18
69503;SHT31;56704;54.242;12.442;2023-10-19T13:01:11;10.67;75.20
69503;SHT31;56704;54.242;12.442;2023-10-19T13:03:41;10.68;75.39
69503;SHT31;56704;54.242;12.442;2023-10-19T13:06:10;10.61;75.22
69503;SHT31;56704;54.242;12.442;2023-10-19T13:08:37;10.61;75.57
69503;SHT31;56704;54.242;12.442;2023-10-19T13:11:06;10.64;75.65
69503;SHT31;56704;54.242;12.442;2023-10-19T13:13:33;10.60;75.77
69503;SHT31;56704;54.242;12.442;2023-10-19T13:16:03;10.61;75.79
69503;SHT31;56704;54.242;12.442;2023-10-19T13:18:31;10.55;75.88
69503;SHT31;56704;54.242;12.442;2023-10-19T13:20:59;10.57;75.93
69503;SHT31;56704;54.242;12.442;2023-10-19T13:23:30;10.51;75.73
69503;SHT31;56704;54.242;12.442;2023-10-19T13:25:58;10.51;75.97
69503;SHT31;56704;54.242;12.442;2023-10-19T13:28:34;10.47;76.02
69503;SHT31;56704;54.242;12.442;2023-10-19T13:31:00;10.41;75.76
69503;SHT31;56704;54.242;12.442;2023-10-19T13:33:30;10.41;75.82
69503;SHT31;56704;54.242;12.442;2023-10-19T13:35:57;10.40;76.14
69503;SHT31;56704;54.242;12.442;2023-10-19T13:38:23;10.36;75.98
69503;SHT31;56704;54.242;12.442;2023-10-19T13:40:50;10.33;76.15
69503;SHT31;56704;54.242;12.442;2023-10-19T13:43:18;10.30;76.34
69503;SHT31;56704;54.242;12.442;2023-10-19T13:45:46;10.30;76.40
69503;SHT31;56704;54.242;12.442;2023-10-19T13:48:14;10.29;76.61
69503;SHT31;56704;54.242;12.442;2023-10-19T13:50:43;10.23;76.75
69503;SHT31;56704;54.242;12.442;2023-10-19T13:53:11;10.26;76.91
69503;SHT31;56704;54.242;12.442;2023-10-19T13:55:38;10.17;76.95
69503;SHT31;56704;54.242;12.442;2023-10-19T13:58:04;10.17;77.17
69503;SHT31;56704;54.242;12.442;2023-10-19T14:00:32;10.17;77.28
69503;SHT31;56704;54.242;12.442;2023-10-19T14:03:06;10.16;77.33
69503;SHT31;56704;54.242;12.442;2023-10-19T14:05:35;10.14;77.55
69503;SHT31;56704;54.242;12.442;2023-10-19T14:08:05;10.12;77.44
69503;SHT31;56704;54.242;12.442;2023-10-19T14:10:32;10.10;77.54
69503;SHT31;56704;54.242;12.442;2023-10-19T14:12:59;10.07;77.61
69503;SHT31;56704;54.242;12.442;2023-10-19T14:15:26;10.09;77.66
69503;SHT31;56704;54.242;12.442;2023-10-19T14:17:56;10.06;77.62
69503;SHT31;56704;54.242;12.442;2023-10-19T14:20:24;10.06;77.74
69503;SHT31;56704;54.242;12.442;2023-10-19T14:22:51;10.04;77.74
69503;SHT31;56704;54.242;12.442;2023-10-19T14:25:20;10.02;77.88
69503;SHT31;56704;54.242;12.442;2023-10-19T14:27:49;10.04;77.93
69503;SHT31;56704;54.242;12.442;2023-10-19T14:30:17;10.07;77.92
69503;SHT31;56704;54.242;12.442;2023-10-19T14:32:45;10.02;77.88
69503;SHT31;56704;54.242;12.442;2023-10-19T14:35:17;10.04;77.94
69503;SHT31;56704;54.242;12.442;2023-10-19T14:37:45;10.03;78.04
69503;SHT31;56704;54.242;12.442;2023-10-19T14:40:12;10.06;78.16
69503;SHT31;56704;54.242;12.442;2023-10-19T14:42:41;10.02;78.10
69503;SHT31;56704;54.242;12.442;2023-10-19T14:45:09;9.99;78.27
69503;SHT31;56704;54.242;12.442;2023-10-19T14:47:37;10.00;78.44
69503;SHT31;56704;54.242;12.442;2023-10-19T14:50:09;9.96;78.67
69503;SHT31;56704;54.242;12.442;2023-10-19T14:52:36;9.99;78.73
69503;SHT31;56704;54.242;12.442;2023-10-19T14:55:03;9.99;78.81
69503;SHT31;56704;54.242;12.442;2023-10-19T14:57:31;9.94;78.85
69503;SHT31;56704;54.242;12.442;2023-10-19T14:59:59;9.93;78.77
69503;SHT31;56704;54.242;12.442;2023-10-19T15:02:34;9.96;78.92
69503;SHT31;56704;54.242;12.442;2023-10-19T15:05:01;9.92;78.95
69503;SHT31;56704;54.242;12.442;2023-10-19T15:07:29;9.92;79.08
69503;SHT31;56704;54.242;12.442;2023-10-19T15:09:56;9.90;79.06
69503;SHT31;56704;54.242;12.442;2023-10-19T15:12:23;9.90;79.05
69503;SHT31;56704;54.242;12.442;2023-10-19T15:14:49;9.94;79.07
69503;SHT31;56704;54.242;12.442;2023-10-19T15:17:18;9.94;79.18
69503;SHT31;56704;54.242;12.442;2023-10-19T15:19:45;9.92;79.36
69503;SHT31;56704;54.242;12.442;2023-10-19T15:22:11;9.90;79.36
69503;SHT31;56704;54.242;12.442;2023-10-19T15:24:38;9.90;79.32
69503;SHT31;56704;54.242;12.442;2023-10-19T15:27:05;9.85;79.44
69503;SHT31;56704;54.242;12.442;2023-10-19T15:29:32;9.85;79.28
69503;SHT31;56704;54.242;12.442;2023-10-19T15:31:59;9.85;79.31
69503;SHT31;56704;54.242;12.442;2023-10-19T15:34:27;9.82;79.30
69503;SHT31;56704;54.242;12.442;2023-10-19T15:36:55;9.82;79.27